ROMMA est une association bénévole à but non lucratif. Votre soutien est indispensable : ADHERER à ROMMA ou FAIRE un DON

Chindrieux - (73, Savoie)

Chautagne (260 m)   Longitude: 05°50' E   Latitude: 45°49' N Station partenaire n°74
 

Détail journalier du     <<     >>

Température Precipitation Humidité Pression Vent Dir Rafale Dir. rafale Ensol.
Heure (°C) (mm) (%) (hPa) (km/h) (km/h) (min)
01:00 19.803299615SSE37SE0
02:00 19.30339978S21ESE0
03:00 17.70419974SE16SSE0
04:00 16.60479963NE6ENE0
05:00 16.30539963NE8NE0
06:00 15.50589951NE5NE0
07:00 16.10559951NE8E0
08:00 15.00649951NE8NE0
09:00 15.30679961NE5NE0
10:00 17.20589961NE8SE0
11:00 18.30559965SE15SSE20
12:00 18.50559955SE13SSE10
13:00 20.80479953SSE10NE50
14:00 21.60449945N13O60
15:00 22.70409946SE15SO50
16:00 22.60509947S19SE50
17:00 21.10539948SSO19S0
18:00 20.30549946SSO15SO20
19:00 20.80549942S15OSO30
20:00 19.20599955SE15ESE20
21:00 18.30639962ESE11ESE0
22:00 17.70679971SE10SE0
23:00 16.60719982SE15SE0
minuit 16.107499806ESE0

Graphique du 23-04-2019

 

Serveur OMMA